Time;durP1;ratioP1;P1;durP2;ratioP2;P2;SDS_P1;SDS_P2;PMS_P1;PMS_P2;Temp;Humidity;BMP_temperature;BMP_pressure;BME280_temperature;BME280_humidity;BME280_pressure;Samples;Min_cycle;Max_cycle;Signal;HPM_P1;HPM_P2
2022/07/28 00:01:12;;;;;;;21.33;11.38;;;;;;;23.74;59.16;98960.81;5052255;28;20561;-68
2022/07/28 00:03:39;;;;;;;23.25;12.88;;;;;;;23.75;59.29;98962.41;5051761;28;20052;-67
2022/07/28 00:06:06;;;;;;;22.63;13.52;;;;;;;23.77;59.10;98966.41;5052177;28;20577;-67
2022/07/28 00:08:33;;;;;;;20.38;13.27;;;;;;;23.76;59.15;98966.84;5069473;28;20554;-68
2022/07/28 00:11:00;;;;;;;21.83;12.85;;;;;;;23.74;59.39;98972.19;5075994;28;20477;-68
2022/07/28 00:13:27;;;;;;;25.45;13.13;;;;;;;23.71;59.78;98964.53;5075621;28;20561;-68
2022/07/28 00:15:54;;;;;;;22.27;13.55;;;;;;;23.74;59.42;98975.81;5075612;28;20507;-68
2022/07/28 00:18:21;;;;;;;27.92;14.63;;;;;;;23.73;59.62;98968.53;5076305;28;20509;-68
2022/07/28 00:20:48;;;;;;;28.27;13.43;;;;;;;23.71;59.52;98973.81;5075513;28;20047;-67
2022/07/28 00:23:15;;;;;;;21.65;13.50;;;;;;;23.70;59.84;98977.09;5075414;28;20048;-67
2022/07/28 00:25:41;;;;;;;22.65;13.75;;;;;;;23.67;59.57;98967.41;5057813;28;20454;-68
2022/07/28 00:28:08;;;;;;;20.08;13.95;;;;;;;23.67;59.78;98975.13;5075341;28;20088;-72
2022/07/28 00:30:35;;;;;;;25.60;14.85;;;;;;;23.59;60.05;98977.28;5075363;28;20051;-71
2022/07/28 00:33:04;;;;;;;34.92;17.58;;;;;;;23.58;60.05;98981.38;5075320;28;20144;-66
2022/07/28 00:35:32;;;;;;;35.13;20.33;;;;;;;23.54;60.02;98979.84;5069695;28;20079;-64
2022/07/28 00:37:59;;;;;;;21.52;13.95;;;;;;;23.53;60.08;98972.56;5054868;28;20049;-65
2022/07/28 00:43:20;;;;;;;23.40;13.65;;;;;;;23.50;60.14;98979.91;5024540;28;20570;-65
2022/07/28 00:45:47;;;;;;;18.73;13.57;;;;;;;23.49;60.01;98986.00;5055113;28;20053;-67
2022/07/28 00:48:14;;;;;;;23.10;14.48;;;;;;;23.49;59.89;98968.97;5054770;28;20049;-65
2022/07/28 00:50:44;;;;;;;25.60;14.50;;;;;;;23.48;60.10;98987.25;5055126;28;20048;-64
2022/07/28 00:53:11;;;;;;;24.88;14.50;;;;;;;23.45;60.07;98971.06;5054575;28;20556;-65
2022/07/28 00:55:40;;;;;;;22.17;14.13;;;;;;;23.42;60.15;98973.53;5054652;28;20056;-65
2022/07/28 00:58:28;;;;;;;21.67;13.98;;;;;;;23.41;60.13;98968.28;5054701;28;20053;-65
2022/07/28 01:00:55;;;;;;;26.00;14.43;;;;;;;23.37;60.20;98967.56;5054467;28;20400;-65
2022/07/28 01:03:23;;;;;;;20.63;14.05;;;;;;;23.36;60.20;98972.44;5054417;28;20053;-66
2022/07/28 01:05:53;;;;;;;25.05;14.80;;;;;;;23.36;60.33;98975.25;5054509;28;20059;-65
2022/07/28 01:08:28;;;;;;;24.92;15.13;;;;;;;23.38;60.02;98963.47;5067232;28;20078;-65
2022/07/28 01:11:36;;;;;;;24.23;15.10;;;;;;;23.38;59.96;98967.13;5074604;28;20051;-66
2022/07/28 01:14:22;;;;;;;26.73;15.20;;;;;;;23.34;60.00;98966.41;5040132;28;20523;-66
2022/07/28 01:17:00;;;;;;;20.15;13.90;;;;;;;23.36;60.10;98961.06;5074582;28;20131;-65
2022/07/28 01:19:47;;;;;;;26.33;15.35;;;;;;;23.29;60.27;98964.03;5074590;28;20037;-65
2022/07/28 01:22:19;;;;;;;23.70;13.82;;;;;;;23.27;60.47;98965.72;5074300;28;20077;-65
2022/07/28 01:24:53;;;;;;;21.25;15.07;;;;;;;23.27;60.55;98960.81;5074478;28;20056;-66
2022/07/28 01:27:44;;;;;;;19.90;14.13;;;;;;;23.26;60.56;98959.22;5074533;28;20080;-66
2022/07/28 01:30:31;;;;;;;25.73;14.98;;;;;;;23.23;60.75;98960.06;5074044;28;20056;-72
2022/07/28 01:33:07;;;;;;;25.17;14.65;;;;;;;23.21;60.84;98965.34;5074139;28;20058;-70
2022/07/28 01:35:43;;;;;;;33.65;15.25;;;;;;;23.18;60.85;98963.38;5069896;28;20059;-71
2022/07/28 01:38:12;;;;;;;25.48;15.32;;;;;;;23.14;61.29;98953.31;5054027;28;20385;-71
2022/07/28 01:40:44;;;;;;;30.63;15.43;;;;;;;23.17;61.06;98952.47;5054161;28;20067;-72
2022/07/28 01:43:19;;;;;;;25.67;15.50;;;;;;;23.16;61.24;98946.00;5054061;28;20079;-71
2022/07/28 01:45:46;;;;;;;29.58;16.15;;;;;;;23.17;61.45;98950.44;5053886;28;20135;-67
2022/07/28 01:48:16;;;;;;;27.23;15.65;;;;;;;23.19;61.20;98947.16;5053884;28;20068;-67
2022/07/28 01:50:46;;;;;;;26.40;15.13;;;;;;;23.19;61.33;98947.97;5053828;28;20048;-67
2022/07/28 01:53:15;;;;;;;24.00;15.70;;;;;;;23.19;61.43;98945.13;5053606;28;20053;-67
2022/07/28 01:55:43;;;;;;;;;;;;;;;23.12;61.26;98952.97;5054265;28;20057;-67
2022/07/28 01:58:11;;;;;;;26.38;15.57;;;;;;;23.18;61.10;98946.34;5053536;28;19924;-67
2022/07/28 02:00:41;;;;;;;27.48;16.55;;;;;;;23.19;61.10;98941.50;5053640;28;20048;-67
2022/07/28 02:03:10;;;;;;;;;;;;;;;23.09;61.27;98946.09;5036058;28;20423;-67
2022/07/28 02:05:39;;;;;;;23.92;16.15;;;;;;;23.13;61.39;98949.69;5053690;28;19925;-66
2022/07/28 02:08:08;;;;;;;27.00;16.27;;;;;;;23.15;61.37;98941.53;5063765;28;20098;-66
2022/07/28 02:10:40;;;;;;;24.13;16.17;;;;;;;23.18;61.53;98946.34;5073408;28;20055;-66
2022/07/28 02:13:09;;;;;;;27.30;16.60;;;;;;;23.23;61.72;98954.38;5073335;28;20140;-66
2022/07/28 02:15:37;;;;;;;29.83;16.98;;;;;;;23.27;61.47;98955.16;5073233;28;20048;-65
2022/07/28 02:18:06;;;;;;;26.27;15.20;;;;;;;23.28;61.50;98951.09;5073144;28;20132;-65
2022/07/28 02:20:35;;;;;;;23.00;15.82;;;;;;;23.25;61.73;98946.28;5073136;28;20386;-65
2022/07/28 02:23:03;;;;;;;26.25;16.55;;;;;;;23.30;61.73;98945.00;5054922;28;20072;-66
2022/07/28 02:25:31;;;;;;;28.10;16.00;;;;;;;23.38;61.43;98954.19;5073430;28;20135;-66
2022/07/28 02:28:04;;;;;;;29.92;14.82;;;;;;;23.42;61.30;98959.34;5072933;28;20058;-66
2022/07/28 02:30:40;;;;;;;29.20;16.85;;;;;;;23.50;60.95;98956.41;5072600;28;20525;-65
2022/07/28 02:33:22;;;;;;;25.95;15.77;;;;;;;23.56;60.73;98966.81;5072843;28;20078;-65
2022/07/28 02:36:15;;;;;;;25.48;16.63;;;;;;;23.59;60.80;98954.56;5063101;28;20079;-67
2022/07/28 02:38:45;;;;;;;34.28;16.17;;;;;;;23.65;60.32;98957.75;5052688;28;20060;-66
2022/07/28 02:41:19;;;;;;;23.23;15.75;;;;;;;23.70;60.25;98957.22;5071568;28;20079;-66
2022/07/28 02:43:47;;;;;;;27.85;15.95;;;;;;;23.74;60.14;98955.91;5072813;28;20060;-66
2022/07/28 02:46:20;;;;;;;36.75;17.08;;;;;;;23.81;59.99;98954.97;5064387;28;20075;-67
2022/07/28 02:48:53;;;;;;;23.20;15.93;;;;;;;23.79;60.01;98968.81;5034748;28;20075;-65
2022/07/28 02:51:27;;;;;;;27.10;15.57;;;;;;;23.81;59.96;98966.34;5052427;28;20056;-66
2022/07/28 02:53:56;;;;;;;29.85;15.32;;;;;;;23.79;59.77;98969.63;5052397;28;20550;-71
2022/07/28 02:56:24;;;;;;;27.60;14.53;;;;;;;23.84;59.82;98968.31;5053226;28;20069;-71
2022/07/28 02:58:51;;;;;;;22.58;14.68;;;;;;;23.90;59.75;98975.09;5052415;28;20415;-72
2022/07/28 03:01:19;;;;;;;26.50;15.75;;;;;;;23.94;59.50;98970.94;5052694;28;20037;-68
2022/07/28 03:03:47;;;;;;;22.83;15.40;;;;;;;24.00;59.54;98974.94;5052200;28;20061;-67
2022/07/28 03:06:16;;;;;;;22.27;14.85;;;;;;;24.00;59.60;98974.94;5052587;28;20144;-67
2022/07/28 03:08:43;;;;;;;25.60;15.32;;;;;;;23.95;59.95;98972.56;5052090;28;20057;-67
2022/07/28 03:11:12;;;;;;;25.95;16.27;;;;;;;23.92;59.87;98969.78;5034612;28;20136;-69
2022/07/28 03:13:39;;;;;;;23.60;16.23;;;;;;;23.98;59.60;98979.44;5034837;28;20392;-68
2022/07/28 03:16:07;;;;;;;28.15;15.75;;;;;;;24.02;59.92;98978.13;5052525;28;20079;-68
2022/07/28 03:18:34;;;;;;;22.90;14.85;;;;;;;24.06;59.84;98973.19;5052209;28;20049;-67
2022/07/28 03:21:01;;;;;;;20.58;14.80;;;;;;;24.09;60.08;98978.00;5052932;28;20045;-68
2022/07/28 03:23:33;;;;;;;24.90;14.80;;;;;;;24.12;59.83;98976.31;5052353;28;20505;-69
2022/07/28 03:26:08;;;;;;;26.83;14.00;;;;;;;24.13;60.19;98986.44;5052295;28;20048;-67
2022/07/28 03:28:36;;;;;;;24.73;14.75;;;;;;;24.10;60.21;98979.59;5053671;28;20434;-68
2022/07/28 03:31:08;;;;;;;28.38;14.55;;;;;;;24.14;60.46;98985.22;5072281;28;20052;-68
2022/07/28 03:33:35;;;;;;;25.33;15.05;;;;;;;24.14;60.49;98993.72;5072333;28;20517;-67
2022/07/28 03:36:08;;;;;;;25.02;14.60;;;;;;;24.20;60.52;98989.94;5062237;28;20361;-69
2022/07/28 03:38:39;;;;;;;28.55;13.57;;;;;;;24.29;59.87;98978.81;5052480;28;20049;-68
2022/07/28 03:41:09;;;;;;;20.55;13.70;;;;;;;24.38;60.11;98981.03;5054078;28;20083;-67
2022/07/28 03:43:36;;;;;;;28.95;14.45;;;;;;;24.39;60.04;98979.81;5055835;28;20052;-67
2022/07/28 03:46:03;;;;;;;20.73;13.07;;;;;;;24.51;59.43;98982.00;5056270;28;20136;-67
2022/07/28 03:48:36;;;;;;;22.70;13.00;;;;;;;24.59;59.29;98977.75;5055993;28;20072;-67
2022/07/28 03:51:03;;;;;;;21.10;13.32;;;;;;;24.77;59.01;98981.81;5055715;28;20526;-67
2022/07/28 03:53:30;;;;;;;25.10;12.23;;;;;;;24.88;58.68;98985.25;5055875;28;20148;-67
2022/07/28 03:55:57;;;;;;;19.48;12.90;;;;;;;24.99;57.80;98973.59;5056034;28;20052;-67
2022/07/28 03:58:26;;;;;;;23.88;11.98;;;;;;;25.06;57.54;98982.78;5055484;28;20102;-68
2022/07/28 04:00:55;;;;;;;18.40;11.32;;;;;;;25.07;57.20;98975.00;5056231;28;20091;-68
2022/07/28 04:03:22;;;;;;;14.55;10.65;;;;;;;25.07;57.14;98981.53;5056067;28;20064;-68
2022/07/28 04:06:10;;;;;;;22.33;11.07;;;;;;;25.10;56.84;98982.66;5055869;28;20052;-67
2022/07/28 04:08:38;;;;;;;20.48;12.70;;;;;;;25.08;56.77;98971.72;5070235;28;20057;-67
2022/07/28 04:11:05;;;;;;;17.83;11.30;;;;;;;25.07;56.72;98975.00;5075581;28;20131;-68
2022/07/28 04:13:33;;;;;;;16.45;10.68;;;;;;;25.06;56.60;98977.09;5075461;28;20242;-67
2022/07/28 04:16:00;;;;;;;24.17;11.52;;;;;;;25.03;56.82;98968.63;5075290;28;20052;-68
2022/07/28 04:18:27;;;;;;;18.08;10.27;;;;;;;25.00;56.80;98975.19;5075488;28;20055;-67
2022/07/28 04:20:54;;;;;;;18.50;11.73;;;;;;;24.99;56.48;98985.78;5075394;28;20045;-68
2022/07/28 04:23:22;;;;;;;22.48;12.65;;;;;;;24.95;56.51;98985.06;5075917;28;20059;-68
2022/07/28 04:25:49;;;;;;;19.13;11.65;;;;;;;24.96;57.17;98983.81;5075640;28;20059;-68
2022/07/28 04:28:17;;;;;;;19.42;12.43;;;;;;;24.95;57.32;98984.25;5075737;28;20048;-68
2022/07/28 04:30:44;;;;;;;19.95;11.15;;;;;;;24.91;56.91;98986.38;5075505;28;20051;-68
2022/07/28 04:33:14;;;;;;;22.30;12.13;;;;;;;24.87;57.30;98991.38;5075221;28;20106;-68
2022/07/28 04:35:41;;;;;;;20.17;11.88;;;;;;;24.89;57.10;98983.16;5068940;28;20076;-68
2022/07/28 04:38:08;;;;;;;16.52;11.48;;;;;;;25.06;56.90;98987.66;5055239;28;20063;-72
2022/07/28 04:40:35;;;;;;;22.90;12.35;;;;;;;25.24;55.94;98990.06;5054793;28;20041;-71
2022/07/28 04:43:02;;;;;;;17.63;12.27;;;;;;;25.39;55.87;98995.00;5037348;28;20057;-72
2022/07/28 04:45:29;;;;;;;20.40;12.32;;;;;;;25.56;55.59;99001.50;5054919;28;20407;-71
2022/07/28 04:47:56;;;;;;;19.88;12.60;;;;;;;25.73;55.25;98986.78;5037291;28;20519;-73
2022/07/28 04:50:24;;;;;;;24.67;12.40;;;;;;;25.82;54.55;98986.97;5054748;28;20440;-70
2022/07/28 04:52:51;;;;;;;23.50;11.73;;;;;;;25.95;54.61;98990.66;5054210;28;20568;-71
2022/07/28 04:55:18;;;;;;;18.63;11.18;;;;;;;26.06;53.96;98996.91;5054822;28;20061;-71
2022/07/28 04:57:45;;;;;;;20.98;11.15;;;;;;;26.04;53.59;98993.69;5036927;28;20060;-71
2022/07/28 05:00:14;;;;;;;21.85;11.40;;;;;;;26.03;53.69;98994.97;5059232;28;20422;-71
2022/07/28 05:02:43;;;;;;;21.50;10.88;;;;;;;26.11;53.76;98999.19;5074339;28;20418;-71
2022/07/28 05:05:11;;;;;;;22.55;11.15;;;;;;;26.17;53.02;98988.06;5074457;28;20146;-66
2022/07/28 05:07:39;;;;;;;19.33;10.45;;;;;;;26.23;52.81;98995.59;5067861;28;20053;-67
2022/07/28 05:10:08;;;;;;;20.20;11.55;;;;;;;26.32;52.58;98992.09;5054492;28;20110;-66
2022/07/28 05:12:36;;;;;;;17.27;9.82;;;;;;;26.49;52.19;98999.31;5054425;28;20414;-66
2022/07/28 05:15:05;;;;;;;20.25;11.60;;;;;;;26.61;51.83;99002.22;5054263;28;20503;-67
2022/07/28 05:17:33;;;;;;;17.73;11.82;;;;;;;26.77;51.52;99002.16;5054423;28;20087;-66
2022/07/28 05:20:00;;;;;;;20.67;9.95;;;;;;;26.99;51.02;99001.50;5054422;28;20080;-66
2022/07/28 05:22:39;;;;;;;;;;;;;;;26.97;50.71;99004.00;5054762;28;20045;-67
2022/07/28 05:25:17;;;;;;;19.85;10.00;;;;;;;27.08;50.29;98998.78;5054348;28;19924;-66
2022/07/28 05:27:48;;;;;;;15.77;9.90;;;;;;;27.33;50.24;99004.50;5036111;28;20147;-73
2022/07/28 05:30:16;;;;;;;15.02;9.25;;;;;;;27.63;49.05;99003.88;5054218;28;20106;-72
2022/07/28 05:32:44;;;;;;;21.98;9.18;;;;;;;27.85;48.54;99001.88;5054285;28;20063;-72
2022/07/28 05:35:11;;;;;;;14.45;9.45;;;;;;;28.01;48.44;98998.91;5054015;28;20045;-72
2022/07/28 05:37:39;;;;;;;14.07;9.07;;;;;;;28.16;47.72;98997.13;5054175;28;20158;-73
2022/07/28 05:40:14;;;;;;;19.00;9.73;;;;;;;28.37;47.18;99002.88;5057939;28;20442;-73
2022/07/28 05:42:42;;;;;;;16.77;8.23;;;;;;;28.48;45.88;99009.00;5074145;28;20045;-72
2022/07/28 05:45:11;;;;;;;12.55;8.00;;;;;;;28.61;45.25;99008.13;5073945;28;20469;-73
2022/07/28 05:47:48;;;;;;;10.75;8.40;;;;;;;28.82;44.58;99002.41;5054680;28;20049;-72
2022/07/28 05:50:16;;;;;;;16.25;8.82;;;;;;;29.15;44.29;99003.56;5053528;28;20142;-73
2022/07/28 05:52:44;;;;;;;11.63;7.80;;;;;;;29.49;43.76;99006.22;5053738;28;20068;-71
2022/07/28 05:55:12;;;;;;;11.60;8.27;;;;;;;29.95;42.89;98998.53;5053347;28;20041;-72
2022/07/28 05:57:40;;;;;;;12.88;8.00;;;;;;;30.40;41.85;98997.81;5053161;28;20063;-73
2022/07/28 06:00:11;;;;;;;13.05;8.18;;;;;;;30.34;41.20;98996.84;5053701;28;20079;-71
2022/07/28 06:02:38;;;;;;;12.13;8.32;;;;;;;30.16;41.65;99001.28;5053276;28;20052;-71
2022/07/28 06:05:06;;;;;;;25.75;8.75;;;;;;;30.14;41.19;98997.31;5052576;28;20053;-71
2022/07/28 06:07:33;;;;;;;14.85;8.32;;;;;;;30.06;40.67;99008.28;5052920;28;20059;-71
2022/07/28 06:10:10;;;;;;;12.68;8.02;;;;;;;29.69;41.32;99003.75;5053412;28;20124;-71
2022/07/28 06:12:42;;;;;;;11.52;8.45;;;;;;;29.49;41.43;99000.47;5053293;28;20049;-72
2022/07/28 06:15:16;;;;;;;20.63;8.50;;;;;;;29.50;41.63;99002.09;5035722;28;20116;-72
2022/07/28 06:17:43;;;;;;;11.52;8.77;;;;;;;30.04;40.76;99007.97;5052920;28;20095;-72
2022/07/28 06:20:11;;;;;;;23.25;8.73;;;;;;;30.71;39.58;99004.13;5052978;28;20128;-72
2022/07/28 06:22:53;;;;;;;12.38;8.75;;;;;;;30.69;39.42;99007.47;5053070;28;20041;-72
2022/07/28 06:25:26;;;;;;;14.35;7.53;;;;;;;30.71;39.53;99004.13;5052910;28;20103;-72
2022/07/28 06:27:57;;;;;;;11.25;8.65;;;;;;;30.87;39.40;99007.47;5052957;28;20049;-72
2022/07/28 06:30:25;;;;;;;15.43;8.30;;;;;;;31.38;38.47;99008.28;5058799;28;20084;-72
2022/07/28 06:32:55;;;;;;;9.90;7.40;;;;;;;33.11;35.06;98994.97;5072924;28;20056;-71
2022/07/28 06:35:24;;;;;;;12.18;8.25;;;;;;;32.57;35.98;99000.47;5067124;28;20452;-72
2022/07/28 06:37:52;;;;;;;14.75;7.60;;;;;;;32.04;36.96;98996.72;5052897;28;20056;-71
2022/07/28 06:40:20;;;;;;;;;;;;;;;31.96;37.40;99001.25;5067093;28;20515;-72
2022/07/28 06:42:50;;;;;;;12.35;7.82;;;;;;;31.98;37.47;98998.69;5067889;28;19966;-72
2022/07/28 06:45:18;;;;;;;9.77;7.65;;;;;;;31.74;37.67;99007.31;5064428;28;20044;-72
2022/07/28 06:47:48;;;;;;;14.15;8.32;;;;;;;31.93;37.48;98997.28;5055727;28;20055;-72
2022/07/28 06:50:17;;;;;;;19.73;8.32;;;;;;;31.80;37.70;99000.38;5062200;28;20422;-72
2022/07/28 06:52:56;;;;;;;12.77;7.97;;;;;;;31.48;38.12;99003.28;5062749;28;20503;-71
2022/07/28 06:55:28;;;;;;;19.35;7.72;;;;;;;31.36;38.28;98992.81;5071986;28;20084;-71
2022/07/28 06:58:03;;;;;;;21.55;9.05;;;;;;;31.23;38.89;99000.84;5055495;28;20079;-72
2022/07/28 07:00:30;;;;;;;11.73;6.80;;;;;;;31.77;37.07;99003.44;5055474;28;20133;-72
2022/07/28 07:02:57;;;;;;;19.60;7.82;;;;;;;34.36;32.97;98995.75;5055729;28;20295;-71
2022/07/28 07:05:30;;;;;;;13.30;7.50;;;;;;;38.11;27.24;99000.53;5054177;28;20049;-71
2022/07/28 07:07:59;;;;;;;10.30;7.10;;;;;;;39.61;24.99;98996.16;5062156;28;20042;-72
2022/07/28 07:10:26;;;;;;;12.88;7.72;;;;;;;38.99;25.77;98987.69;5056211;28;20591;-71
2022/07/28 07:12:53;;;;;;;11.90;6.68;;;;;;;39.38;25.45;99003.53;5065854;28;20049;-72
2022/07/28 07:15:20;;;;;;;15.15;7.82;;;;;;;40.40;23.86;98996.94;5056309;28;20127;-73
2022/07/28 07:17:47;;;;;;;15.68;7.78;;;;;;;42.95;21.08;98995.56;5058778;28;20131;-72
2022/07/28 07:20:14;;;;;;;30.50;7.80;;;;;;;45.52;18.51;99007.72;5061496;28;20137;-72
2022/07/28 07:22:46;;;;;;;23.35;7.35;;;;;;;47.27;16.89;99000.91;5061683;28;20557;-72
2022/07/28 07:25:17;;;;;;;9.57;6.57;;;;;;;48.25;15.75;99000.91;5052328;28;20507;-71
2022/07/28 07:27:45;;;;;;;16.60;7.78;;;;;;;49.36;15.10;99003.09;5062627;28;20562;-71
2022/07/28 07:30:13;;;;;;;15.05;7.47;;;;;;;49.95;14.21;98998.97;5060974;28;20064;-71
2022/07/28 07:32:41;;;;;;;25.15;7.47;;;;;;;50.45;13.81;99006.78;5059300;28;20041;-71
2022/07/28 07:35:08;;;;;;;11.48;6.93;;;;;;;50.89;13.38;99000.56;5052343;28;20536;-70
2022/07/28 07:37:35;;;;;;;9.70;6.20;;;;;;;51.12;13.15;98997.91;5052422;28;20049;-71
2022/07/28 07:40:04;;;;;;;16.92;7.05;;;;;;;51.31;12.32;99006.75;5072469;28;20087;-72
2022/07/28 07:42:31;;;;;;;13.77;6.10;;;;;;;51.82;12.08;98988.31;5067921;28;20045;-72
2022/07/28 07:44:58;;;;;;;11.23;6.50;;;;;;;52.49;11.43;98997.63;5053158;28;20051;-72
2022/07/28 07:47:25;;;;;;;;;;;;;;;51.85;12.29;98998.91;5068075;28;20445;-71
2022/07/28 07:49:52;;;;;;;;;;;;;;;52.01;12.12;98999.34;5071417;28;19924;-71
2022/07/28 07:52:19;;;;;;;;;;;;;;;52.53;12.45;99003.81;5053853;28;20388;-71
2022/07/28 07:54:46;;;;;;;7.80;5.72;;;;;;;53.02;11.42;99013.13;5055738;28;19925;-72
2022/07/28 07:57:12;;;;;;;;;;;;;;;52.80;11.78;99002.69;5054072;28;20461;-72
2022/07/28 07:59:39;;;;;;;7.07;5.50;;;;;;;53.33;10.63;99001.88;5059919;28;20030;-72
2022/07/28 08:02:06;;;;;;;11.50;6.28;;;;;;;54.32;10.06;99000.91;5056297;28;20068;-72
2022/07/28 08:04:33;;;;;;;13.27;5.70;;;;;;;54.20;10.48;98999.38;5065617;28;20152;-71
2022/07/28 08:07:04;;;;;;;11.68;6.50;;;;;;;53.92;10.34;99004.31;5066967;28;20063;-71
2022/07/28 08:09:32;;;;;;;10.40;6.43;;;;;;;53.38;9.99;99003.69;5052053;28;20079;-71
2022/07/28 08:11:59;;;;;;;7.50;5.65;;;;;;;50.72;12.00;99000.72;5051987;28;20049;-71
2022/07/28 08:14:26;;;;;;;6.40;5.72;;;;;;;45.96;15.94;98984.78;5051563;28;20139;-72
2022/07/28 08:16:55;;;;;;;9.88;6.60;;;;;;;42.57;19.21;98982.59;5052061;28;20315;-72
2022/07/28 08:19:22;;;;;;;11.15;5.93;;;;;;;39.86;22.03;98989.06;5052186;28;20053;-73
2022/07/28 08:21:50;;;;;;;16.10;7.18;;;;;;;39.09;23.32;98978.09;5051839;28;20053;-72
2022/07/28 08:24:17;;;;;;;8.70;6.68;;;;;;;40.99;20.90;98968.25;5051491;28;20132;-72
2022/07/28 08:26:59;;;;;;;18.23;6.97;;;;;;;45.31;17.15;98968.88;5051550;28;20049;-71
2022/07/28 08:29:26;;;;;;;11.20;5.90;;;;;;;48.44;14.26;98956.03;5055384;28;20057;-71
2022/07/28 08:31:53;;;;;;;7.32;5.32;;;;;;;50.66;12.45;98964.69;5057191;28;20037;-72
2022/07/28 08:34:20;;;;;;;6.93;4.82;;;;;;;51.51;11.41;98948.16;5058965;28;20151;-67
2022/07/28 08:37:01;;;;;;;9.48;4.93;;;;;;;51.68;11.65;98948.72;5038894;28;20056;-67
2022/07/28 08:39:31;;;;;;;10.00;6.82;;;;;;;52.44;11.11;98942.28;5054772;28;20415;-67
2022/07/28 08:42:05;;;;;;;7.63;5.53;;;;;;;50.33;12.45;98943.66;5068781;28;20066;-67
2022/07/28 08:44:43;;;;;;;10.60;4.80;;;;;;;52.15;11.31;98932.03;5053559;28;20585;-67
2022/07/28 08:47:13;;;;;;;6.47;4.80;;;;;;;54.19;9.78;98944.97;5057474;28;21387;-68
2022/07/28 08:49:41;;;;;;;9.82;5.30;;;;;;;54.93;9.61;98933.84;5052072;28;20049;-67
2022/07/28 08:52:11;;;;;;;7.50;4.63;;;;;;;55.58;9.05;98924.22;5058146;28;20107;-68
2022/07/28 08:54:46;;;;;;;13.48;5.00;;;;;;;50.47;12.41;98914.34;5058483;28;20068;-68
2022/07/28 08:57:25;;;;;;;10.98;5.63;;;;;;;46.14;15.63;98916.75;5059525;28;20484;-67
2022/07/28 08:59:52;;;;;;;7.45;5.45;;;;;;;48.66;14.23;98917.38;5057203;28;20168;-67
2022/07/28 09:02:19;;;;;;;;;;;;;;;52.11;11.53;98919.88;5037798;28;20059;-68
2022/07/28 09:04:47;;;;;;;9.82;4.90;;;;;;;54.02;9.99;98924.53;5056439;28;19924;-68
2022/07/28 09:07:14;;;;;;;7.53;4.60;;;;;;;50.86;11.43;98954.38;5056936;28;20051;-68
2022/07/28 09:09:42;;;;;;;7.63;5.05;;;;;;;51.95;10.90;98954.34;5056039;28;20102;-68
2022/07/28 09:12:12;;;;;;;14.63;5.15;;;;;;;53.13;10.92;98935.09;5057307;28;20075;-68
2022/07/28 09:14:38;;;;;;;9.52;4.93;;;;;;;54.34;9.67;98926.56;5039535;28;20139;-67
2022/07/28 09:17:06;;;;;;;7.00;4.53;;;;;;;55.67;8.38;98947.88;5057196;28;20056;-68
2022/07/28 09:19:33;;;;;;;5.68;4.30;;;;;;;56.16;8.30;98920.69;5057380;28;20049;-68
2022/07/28 09:22:02;;;;;;;6.43;4.78;;;;;;;56.38;7.95;98930.88;5057805;28;20131;-67
2022/07/28 09:24:31;;;;;;;10.57;4.82;;;;;;;55.57;8.23;98944.34;5057268;28;20139;-66
2022/07/28 09:27:06;;;;;;;15.90;6.63;;;;;;;56.09;8.16;98925.59;5058871;28;20052;-68
2022/07/28 09:29:37;;;;;;;5.00;4.50;;;;;;;56.95;7.75;98938.34;5056270;28;20049;-68
2022/07/28 09:32:05;;;;;;;9.25;4.68;;;;;;;54.94;8.36;98924.25;5057662;28;20045;-67
2022/07/28 09:34:47;;;;;;;7.80;4.90;;;;;;;55.88;7.83;98913.19;5056458;28;20531;-67
2022/07/28 09:37:24;;;;;;;7.82;5.60;;;;;;;56.48;7.70;98919.44;5057029;28;20132;-67
2022/07/28 09:39:58;;;;;;;8.10;5.50;;;;;;;56.36;8.06;98909.84;5056331;28;20065;-66
2022/07/28 09:42:43;;;;;;;13.98;4.80;;;;;;;55.47;8.71;98916.91;5058323;28;20419;-68
2022/07/28 09:45:10;;;;;;;10.48;5.80;;;;;;;50.20;12.05;98913.69;5055093;28;20051;-67
2022/07/28 09:48:12;;;;;;;10.23;5.47;;;;;;;44.50;16.67;98904.22;5054904;28;20053;-68
2022/07/28 09:50:41;;;;;;;9.40;6.38;;;;;;;41.49;20.08;98888.56;5072650;28;20044;-67
2022/07/28 09:53:22;;;;;;;7.57;6.07;;;;;;;39.38;22.40;98898.72;5067531;28;20535;-67
2022/07/28 09:56:00;;;;;;;8.77;6.18;;;;;;;38.02;24.25;98899.13;5056993;28;20424;-67
2022/07/28 09:58:28;;;;;;;8.77;5.95;;;;;;;37.02;25.82;98894.81;5053318;28;20595;-66
2022/07/28 10:01:02;;;;;;;12.43;6.97;;;;;;;36.75;26.50;98893.53;5053088;28;20052;-65
2022/07/28 10:03:30;;;;;;;8.40;6.30;;;;;;;36.85;26.88;98899.84;5058315;28;20063;-66
2022/07/28 10:05:58;;;;;;;11.32;6.30;;;;;;;36.36;27.10;98895.53;5052868;28;20099;-66
2022/07/28 10:08:39;;;;;;;;;;;;;;;35.52;27.70;98898.59;5053631;28;20100;-66
2022/07/28 10:11:08;;;;;;;8.45;6.43;;;;;;;34.97;28.52;98920.00;5053340;28;19931;-66
2022/07/28 10:13:52;;;;;;;9.85;6.45;;;;;;;34.70;28.89;98893.72;5052786;28;20424;-65
2022/07/28 10:16:20;;;;;;;10.75;8.50;;;;;;;34.81;29.15;98908.28;5060313;28;20056;-66
2022/07/28 10:18:47;;;;;;;8.70;4.28;;;;;;;34.50;27.35;98890.91;5061152;28;20099;-65
2022/07/28 10:21:17;;;;;;;7.50;4.57;;;;;;;34.20;27.16;98898.16;5054557;28;20051;-65
2022/07/28 10:23:50;;;;;;;11.48;4.03;;;;;;;33.71;27.01;98892.56;5068783;28;20518;-65
2022/07/28 10:26:20;;;;;;;6.57;4.90;;;;;;;33.22;27.96;98902.84;5070112;28;20063;-65
2022/07/28 10:28:49;;;;;;;8.73;4.63;;;;;;;32.88;28.51;98909.41;5064242;28;20067;-65
2022/07/28 10:31:39;;;;;;;6.03;4.88;;;;;;;32.54;28.93;98904.34;5068055;28;20437;-66
2022/07/28 10:34:13;;;;;;;9.70;4.78;;;;;;;32.13;29.73;98914.00;5055732;28;20110;-65
2022/07/28 10:36:45;;;;;;;6.47;4.55;;;;;;;31.79;30.33;98923.19;5052557;28;20133;-66
2022/07/28 10:39:17;;;;;;;8.30;4.68;;;;;;;31.66;31.52;98945.66;5061473;28;20479;-66
2022/07/28 10:41:45;;;;;;;8.38;5.75;;;;;;;31.69;32.41;98944.69;5055993;28;20037;-66
2022/07/28 10:44:13;;;;;;;8.38;4.72;;;;;;;31.69;32.01;98950.44;5057794;28;20052;-66
2022/07/28 10:46:44;;;;;;;9.88;5.60;;;;;;;31.54;32.93;98958.19;5061919;28;20518;-63
2022/07/28 10:49:12;;;;;;;6.78;5.20;;;;;;;31.58;32.80;98959.63;5069690;28;20072;-65
2022/07/28 10:51:45;;;;;;;10.13;5.13;;;;;;;31.79;32.81;98947.00;5064444;28;20110;-65
2022/07/28 10:54:39;;;;;;;8.32;6.07;;;;;;;31.66;33.75;98948.53;5070503;28;20053;-64
2022/07/28 10:57:10;;;;;;;8.55;5.72;;;;;;;31.58;33.80;98958.81;5057404;28;20048;-65
2022/07/28 11:00:06;;;;;;;7.20;5.45;;;;;;;31.38;34.47;98952.88;5055075;28;20541;-65
2022/07/28 11:02:50;;;;;;;8.30;5.65;;;;;;;31.70;34.33;98954.91;5052445;28;20094;-65
2022/07/28 11:05:37;;;;;;;10.15;6.38;;;;;;;32.04;34.00;98951.50;5056675;28;20045;-66
2022/07/28 11:08:09;;;;;;;9.70;5.68;;;;;;;32.14;34.17;98952.22;5053846;28;20060;-63
2022/07/28 11:10:46;;;;;;;7.22;5.50;;;;;;;32.19;34.13;98951.50;5052340;28;20053;-64
2022/07/28 11:13:45;;;;;;;11.85;6.70;;;;;;;32.48;34.20;98945.84;5052074;28;20518;-65
2022/07/28 11:16:23;;;;;;;8.88;5.90;;;;;;;32.66;33.40;98952.22;5001836;28;20064;-65
2022/07/28 11:19:08;;;;;;;11.52;5.90;;;;;;;32.83;32.49;98961.94;5052703;28;20056;-66
2022/07/28 11:22:13;;;;;;;11.90;5.45;;;;;;;32.50;32.51;98981.47;5057883;28;20044;-64
2022/07/28 11:24:55;;;;;;;8.18;5.07;;;;;;;31.70;33.75;98989.41;5051768;28;20056;-65
2022/07/28 11:27:42;;;;;;;9.85;4.68;;;;;;;31.20;34.87;98996.06;5052353;28;20049;-65
2022/07/28 11:30:30;;;;;;;15.63;4.70;;;;;;;30.78;35.67;99001.75;5058999;28;20499;-65
2022/07/28 11:33:05;;;;;;;7.00;4.18;;;;;;;30.42;36.28;98996.03;5092001;28;20079;-65
2022/07/28 11:35:54;;;;;;;10.43;4.25;;;;;;;29.92;37.90;98988.81;5058390;28;20174;-65
2022/07/28 11:38:22;;;;;;;13.77;5.40;;;;;;;29.47;38.59;98985.84;5071803;28;20147;-65
2022/07/28 11:40:51;;;;;;;13.98;5.13;;;;;;;29.26;38.97;99003.91;5071954;28;20047;-65
2022/07/28 11:43:21;;;;;;;7.55;4.53;;;;;;;28.95;38.63;99003.09;5071961;28;20047;-65
2022/07/28 11:46:05;;;;;;;17.35;4.15;;;;;;;28.70;40.23;99006.13;5054292;28;20087;-65
2022/07/28 11:48:39;;;;;;;19.30;5.38;;;;;;;28.00;43.03;99017.31;5051972;28;20045;-65